Time;durP1;ratioP1;P1;durP2;ratioP2;P2;SDS_P1;SDS_P2;PMS_P1;PMS_P2;Temp;Humidity;BMP_temperature;BMP_pressure;BME280_temperature;BME280_humidity;BME280_pressure;Samples;Min_cycle;Max_cycle;Signal;HPM_P1;HPM_P2
2023/10/03 00:01:10;;;;;;;22.67;11.23;;;;;;;;;;5026272;28;20054;-87
2023/10/03 00:03:38;;;;;;;22.40;11.27;;;;;;;;;;5029118;28;20550;-86
2023/10/03 00:06:06;;;;;;;23.75;12.27;;;;;;;;;;5024214;28;20082;-87
2023/10/03 00:08:34;;;;;;;21.83;11.30;;;;;;;;;;5026997;28;20439;-87
2023/10/03 00:11:02;;;;;;;24.00;11.60;;;;;;;;;;5025009;28;20045;-86
2023/10/03 00:13:31;;;;;;;23.98;12.15;;;;;;;;;;5023014;28;20065;-87
2023/10/03 00:15:58;;;;;;;24.70;11.77;;;;;;;;;;5030867;28;20045;-87
2023/10/03 00:18:26;;;;;;;26.77;12.15;;;;;;;;;;5023432;28;20046;-87
2023/10/03 00:20:53;;;;;;;24.08;12.73;;;;;;;;;;5025560;28;20124;-87
2023/10/03 00:23:21;;;;;;;24.58;11.40;;;;;;;;;;5030964;28;20070;-86
2023/10/03 00:25:48;;;;;;;25.38;12.48;;;;;;;;;;5040928;28;20098;-87
2023/10/03 00:28:15;;;;;;;28.60;13.68;;;;;;;;;;5052689;28;20077;-86
2023/10/03 00:30:45;;;;;;;25.83;12.90;;;;;;;;;;5030382;28;20041;-86
2023/10/03 00:33:13;;;;;;;23.15;12.30;;;;;;;;;;5032037;28;20474;-85
2023/10/03 00:35:42;;;;;;;28.05;12.85;;;;;;;;;;5024022;28;20045;-85
2023/10/03 00:38:13;;;;;;;24.58;12.85;;;;;;;;;;5033428;28;20068;-86
2023/10/03 00:40:42;;;;;;;25.08;12.93;;;;;;;;;;5025080;28;20137;-86
2023/10/03 00:43:11;;;;;;;24.30;12.52;;;;;;;;;;5022598;28;20518;-86
2023/10/03 00:45:39;;;;;;;31.17;13.27;;;;;;;;;;5020702;28;20499;-86
2023/10/03 00:48:08;;;;;;;31.35;13.63;;;;;;;;;;5022117;28;20050;-86
2023/10/03 00:50:37;;;;;;;25.00;12.13;;;;;;;;;;5024128;28;20095;-85
2023/10/03 00:53:10;;;;;;;23.42;11.90;;;;;;;;;;5021866;28;20502;-86
2023/10/03 00:55:39;;;;;;;26.70;12.65;;;;;;;;;;5025544;28;20087;-85
2023/10/03 00:58:07;;;;;;;25.20;12.13;;;;;;;;;;5036979;28;20053;-86
2023/10/03 01:00:41;;;;;;;26.63;13.05;;;;;;;;;;5030404;28;20509;-86
2023/10/03 01:03:09;;;;;;;;;;;;;;;;;;5030827;28;20046;-86
2023/10/03 01:05:37;;;;;;;25.92;12.70;;;;;;;;;;5031951;28;19921;-85
2023/10/03 01:08:09;;;;;;;27.17;13.50;;;;;;;;;;5030167;28;20049;-86
2023/10/03 01:10:40;;;;;;;28.67;13.45;;;;;;;;;;5030632;28;20124;-84
2023/10/03 01:13:20;;;;;;;27.00;13.15;;;;;;;;;;5030510;28;20049;-86
2023/10/03 01:15:52;;;;;;;28.65;13.68;;;;;;;;;;5038448;28;20103;-86
2023/10/03 01:18:21;;;;;;;25.98;13.55;;;;;;;;;;5027251;28;20081;-85
2023/10/03 01:20:52;;;;;;;24.85;13.43;;;;;;;;;;5035063;28;20049;-85
2023/10/03 01:23:20;;;;;;;26.67;13.30;;;;;;;;;;5035233;28;20392;-86
2023/10/03 01:25:54;;;;;;;27.58;13.15;;;;;;;;;;5027166;28;20046;-86
2023/10/03 01:28:25;;;;;;;30.15;15.23;;;;;;;;;;5038932;28;20049;-86
2023/10/03 01:30:52;;;;;;;24.35;12.65;;;;;;;;;;5030972;28;20054;-85
2023/10/03 01:33:26;;;;;;;24.92;11.95;;;;;;;;;;5026768;28;20113;-86
2023/10/03 01:35:55;;;;;;;25.27;13.40;;;;;;;;;;5028542;28;20057;-86
2023/10/03 01:38:24;;;;;;;30.40;14.00;;;;;;;;;;5030650;28;20049;-85
2023/10/03 01:40:52;;;;;;;25.98;13.38;;;;;;;;;;5030868;28;20045;-85
2023/10/03 01:43:20;;;;;;;33.75;15.98;;;;;;;;;;5035152;28;20058;-86
2023/10/03 01:45:48;;;;;;;33.38;15.48;;;;;;;;;;5027200;28;20104;-85
2023/10/03 01:48:16;;;;;;;31.02;13.80;;;;;;;;;;5035364;28;20045;-86
2023/10/03 01:50:44;;;;;;;32.63;12.52;;;;;;;;;;5027841;28;20049;-86
2023/10/03 01:53:11;;;;;;;31.15;14.50;;;;;;;;;;5030017;28;20046;-85
2023/10/03 01:55:39;;;;;;;29.08;13.85;;;;;;;;;;5033019;28;20058;-85
2023/10/03 01:58:06;;;;;;;28.65;13.88;;;;;;;;;;5037592;28;20107;-85
2023/10/03 02:00:36;;;;;;;29.67;13.45;;;;;;;;;;5033556;28;20571;-86
2023/10/03 02:03:11;;;;;;;31.02;13.40;;;;;;;;;;5028910;28;20100;-87
2023/10/03 02:05:42;;;;;;;31.20;14.82;;;;;;;;;;5032008;28;20396;-87
2023/10/03 02:08:15;;;;;;;29.00;13.75;;;;;;;;;;5033325;28;20089;-86
2023/10/03 02:10:44;;;;;;;27.83;14.15;;;;;;;;;;5027812;28;20124;-86
2023/10/03 02:13:14;;;;;;;32.60;14.85;;;;;;;;;;5019907;28;20046;-85
2023/10/03 02:15:43;;;;;;;32.13;13.75;;;;;;;;;;5028260;28;20041;-86
2023/10/03 02:18:10;;;;;;;25.00;12.93;;;;;;;;;;5035926;28;20053;-86
2023/10/03 02:20:47;;;;;;;25.35;13.02;;;;;;;;;;5036791;28;20168;-86
2023/10/03 02:23:19;;;;;;;29.70;14.00;;;;;;;;;;5032804;28;20563;-86
2023/10/03 02:25:50;;;;;;;27.38;13.07;;;;;;;;;;5025277;28;20502;-84
2023/10/03 02:28:18;;;;;;;26.55;14.43;;;;;;;;;;5036445;28;20053;-85
2023/10/03 02:30:47;;;;;;;29.25;13.13;;;;;;;;;;5036817;28;20495;-84
2023/10/03 02:33:16;;;;;;;32.72;15.30;;;;;;;;;;5026010;28;20074;-86
2023/10/03 02:35:45;;;;;;;28.27;14.25;;;;;;;;;;5025310;28;20461;-86
2023/10/03 02:38:36;;;;;;;;;;;;;;;;;;5037464;28;20410;-86
2023/10/03 02:41:10;;;;;;;29.95;13.48;;;;;;;;;;5027359;28;20345;-86
2023/10/03 02:43:46;;;;;;;25.73;13.32;;;;;;;;;;5031273;28;20079;-86
2023/10/03 02:46:14;;;;;;;33.17;15.02;;;;;;;;;;5037279;28;20524;-87
2023/10/03 02:48:42;;;;;;;26.90;13.52;;;;;;;;;;5022330;28;20052;-86
2023/10/03 02:51:12;;;;;;;28.13;13.15;;;;;;;;;;5034261;28;20045;-86
2023/10/03 02:53:39;;;;;;;34.95;14.32;;;;;;;;;;5031907;28;20060;-86
2023/10/03 02:56:07;;;;;;;25.70;12.82;;;;;;;;;;5037467;28;20054;-86
2023/10/03 02:58:35;;;;;;;27.15;14.00;;;;;;;;;;5027826;28;20053;-86
2023/10/03 03:01:03;;;;;;;30.70;13.45;;;;;;;;;;5025805;28;20050;-86
2023/10/03 03:03:32;;;;;;;30.10;13.38;;;;;;;;;;5030986;28;20446;-86
2023/10/03 03:06:03;;;;;;;27.00;13.48;;;;;;;;;;5034828;28;20083;-87
2023/10/03 03:08:31;;;;;;;27.95;13.50;;;;;;;;;;5027187;28;20057;-87
2023/10/03 03:10:59;;;;;;;25.30;12.70;;;;;;;;;;5027053;28;20053;-87
2023/10/03 03:13:38;;;;;;;25.73;12.88;;;;;;;;;;5051617;28;20040;-87
2023/10/03 03:16:06;;;;;;;25.08;13.18;;;;;;;;;;5040499;28;20049;-86
2023/10/03 03:18:39;;;;;;;33.25;14.90;;;;;;;;;;5021801;28;20054;-86
2023/10/03 03:21:09;;;;;;;;;;;;;;;;;;5024326;28;20507;-86
2023/10/03 03:23:38;;;;;;;28.60;14.05;;;;;;;;;;5025031;28;20392;-86
2023/10/03 03:28:40;;;;;;;36.13;16.48;;;;;;;;;;5029433;28;20103;-85
2023/10/03 03:31:20;;;;;;;34.85;16.65;;;;;;;;;;5025146;28;20049;-85
2023/10/03 03:33:57;;;;;;;38.33;17.13;;;;;;;;;;5025618;28;20057;-85
2023/10/03 03:36:34;;;;;;;34.75;16.08;;;;;;;;;;5038538;23;20402;-89
2023/10/03 03:39:06;;;;;;;34.22;16.30;;;;;;;;;;5046599;28;20049;-89
2023/10/03 03:41:34;;;;;;;32.75;16.48;;;;;;;;;;5047916;28;20052;-89
2023/10/03 03:44:02;;;;;;;34.20;16.00;;;;;;;;;;5046950;28;20056;-89
2023/10/03 03:46:29;;;;;;;38.40;17.95;;;;;;;;;;5045453;28;20101;-89
2023/10/03 03:49:04;;;;;;;37.08;17.88;;;;;;;;;;5044835;28;20143;-91
2023/10/03 03:51:31;;;;;;;35.53;16.63;;;;;;;;;;5042179;28;20486;-89
2023/10/03 03:54:03;;;;;;;37.75;17.67;;;;;;;;;;5042114;28;20045;-90
2023/10/03 03:56:31;;;;;;;38.10;18.27;;;;;;;;;;5040694;28;20107;-90
2023/10/03 03:58:58;;;;;;;36.45;16.83;;;;;;;;;;5041829;28;20049;-91
2023/10/03 04:01:26;;;;;;;37.42;17.67;;;;;;;;;;5045427;28;20493;-90
2023/10/03 04:03:55;;;;;;;35.85;17.67;;;;;;;;;;5044302;28;20442;-90
2023/10/03 04:06:23;;;;;;;40.38;17.98;;;;;;;;;;5036613;28;20579;-90
2023/10/03 04:08:50;;;;;;;38.30;17.30;;;;;;;;;;5044484;28;20498;-91
2023/10/03 04:11:38;;;;;;;35.30;17.35;;;;;;;;;;5035272;28;20049;-89
2023/10/03 04:14:07;;;;;;;35.95;16.23;;;;;;;;;;5043722;28;20409;-90
2023/10/03 04:16:43;;;;;;;37.15;16.23;;;;;;;;;;5044565;28;20052;-90
2023/10/03 04:19:11;;;;;;;38.85;16.38;;;;;;;;;;5042276;28;20060;-91
2023/10/03 04:21:40;;;;;;;34.63;16.50;;;;;;;;;;5041886;28;20141;-90
2023/10/03 04:24:15;;;;;;;38.47;17.45;;;;;;;;;;5044144;28;20510;-89
2023/10/03 04:26:42;;;;;;;34.95;16.63;;;;;;;;;;5045538;28;20052;-87
2023/10/03 04:29:13;;;;;;;35.85;16.45;;;;;;;;;;5042372;28;20048;-90
2023/10/03 04:31:42;;;;;;;37.70;17.52;;;;;;;;;;5040975;28;20049;-88
2023/10/03 04:34:11;;;;;;;37.20;17.23;;;;;;;;;;5043067;28;20136;-89
2023/10/03 04:36:41;;;;;;;36.03;17.08;;;;;;;;;;5043878;28;20596;-92
2023/10/03 04:39:09;;;;;;;42.72;18.17;;;;;;;;;;5041630;28;20053;-90
2023/10/03 04:41:43;;;;;;;37.00;17.33;;;;;;;;;;5041698;28;20053;-89
2023/10/03 04:44:15;;;;;;;37.53;17.20;;;;;;;;;;5042853;28;20045;-90
2023/10/03 04:46:44;;;;;;;37.80;17.00;;;;;;;;;;5044945;28;20551;-90
2023/10/03 04:49:12;;;;;;;37.55;17.60;;;;;;;;;;5032409;28;20141;-91
2023/10/03 04:51:39;;;;;;;36.97;17.63;;;;;;;;;;5040555;28;20065;-91
2023/10/03 04:54:06;;;;;;;34.35;16.48;;;;;;;;;;5041142;28;20046;-90
2023/10/03 04:56:35;;;;;;;33.90;16.45;;;;;;;;;;5044858;28;20053;-89
2023/10/03 04:59:03;;;;;;;35.95;17.23;;;;;;;;;;5042421;28;20124;-90
2023/10/03 05:01:32;;;;;;;39.15;17.88;;;;;;;;;;5040233;28;20406;-90
2023/10/03 05:04:01;;;;;;;34.53;16.73;;;;;;;;;;5041232;28;20486;-90
2023/10/03 05:06:29;;;;;;;41.92;18.20;;;;;;;;;;5043755;28;20485;-90
2023/10/03 05:08:56;;;;;;;37.63;16.98;;;;;;;;;;5043460;28;20501;-94
2023/10/03 05:11:24;;;;;;;40.38;17.30;;;;;;;;;;5036929;28;20049;-91
2023/10/03 05:13:51;;;;;;;35.20;17.63;;;;;;;;;;5043746;28;20421;-89
2023/10/03 05:16:18;;;;;;;37.42;17.70;;;;;;;;;;5032310;28;20068;-92
2023/10/03 05:18:46;;;;;;;35.60;16.85;;;;;;;;;;5040346;28;20056;-90
2023/10/03 05:21:13;;;;;;;37.85;17.80;;;;;;;;;;5040614;28;20058;-89
2023/10/03 05:23:41;;;;;;;41.75;16.98;;;;;;;;;;5036949;28;20068;-91
2023/10/03 05:26:08;;;;;;;34.78;16.42;;;;;;;;;;5041252;28;20478;-93
2023/10/03 05:28:39;;;;;;;32.90;17.30;;;;;;;;;;5040788;28;20065;-90
2023/10/03 05:31:12;;;;;;;35.05;16.30;;;;;;;;;;5041661;28;20103;-90
2023/10/03 05:33:41;;;;;;;;;;;;;;;;;;5044283;28;20047;-92
2023/10/03 05:36:15;;;;;;;39.88;18.20;;;;;;;;;;5041296;28;19925;-89
2023/10/03 05:38:43;;;;;;;33.33;16.23;;;;;;;;;;5040537;28;20045;-93
2023/10/03 05:41:23;;;;;;;37.03;17.95;;;;;;;;;;5042615;28;20053;-91
2023/10/03 05:43:51;;;;;;;37.45;17.20;;;;;;;;;;5048584;28;20140;-92
2023/10/03 05:46:19;;;;;;;39.95;18.38;;;;;;;;;;5037014;28;20128;-92
2023/10/03 05:48:46;;;;;;;34.50;17.45;;;;;;;;;;5044455;28;20490;-92
2023/10/03 05:51:14;;;;;;;36.08;17.20;;;;;;;;;;5047073;28;20048;-91
2023/10/03 05:53:41;;;;;;;40.33;17.38;;;;;;;;;;5047712;28;20110;-91
2023/10/03 05:56:12;;;;;;;32.53;15.75;;;;;;;;;;5045491;28;20415;-91
2023/10/03 05:58:40;;;;;;;38.30;17.67;;;;;;;;;;5044129;28;20064;-94
2023/10/03 06:01:07;;;;;;;37.85;17.45;;;;;;;;;;5043591;28;20053;-91
2023/10/03 06:03:36;;;;;;;37.05;17.45;;;;;;;;;;5044516;28;20076;-91
2023/10/03 06:06:05;;;;;;;39.28;17.38;;;;;;;;;;5045622;28;20200;-91
2023/10/03 06:08:32;;;;;;;37.35;17.15;;;;;;;;;;5047918;28;20482;-94
2023/10/03 06:11:02;;;;;;;38.67;17.50;;;;;;;;;;5046083;28;20060;-90
2023/10/03 06:13:30;;;;;;;36.05;17.60;;;;;;;;;;5040973;28;20056;-89
2023/10/03 06:16:00;;;;;;;35.17;17.10;;;;;;;;;;5046841;28;20049;-92
2023/10/03 06:18:27;;;;;;;32.42;16.42;;;;;;;;;;5040340;28;20065;-88
2023/10/03 06:20:57;;;;;;;33.88;17.00;;;;;;;;;;5045652;28;20425;-92
2023/10/03 06:23:25;;;;;;;36.50;17.10;;;;;;;;;;5047509;28;20139;-92
2023/10/03 06:25:53;;;;;;;36.08;16.60;;;;;;;;;;5036719;28;20064;-90
2023/10/03 06:28:21;;;;;;;38.38;16.58;;;;;;;;;;5039328;28;20068;-89
2023/10/03 06:30:50;;;;;;;32.88;16.60;;;;;;;;;;5052281;28;20049;-92
2023/10/03 06:33:18;;;;;;;36.10;17.27;;;;;;;;;;5048077;28;20061;-91
2023/10/03 06:35:45;;;;;;;35.60;16.70;;;;;;;;;;5043328;28;20123;-92
2023/10/03 06:38:15;;;;;;;35.78;16.98;;;;;;;;;;5045344;28;20053;-91
2023/10/03 06:40:43;;;;;;;35.33;17.27;;;;;;;;;;5046661;28;20041;-90
2023/10/03 06:43:11;;;;;;;37.47;16.13;;;;;;;;;;5043845;28;20056;-91
2023/10/03 06:45:38;;;;;;;32.22;15.85;;;;;;;;;;5043387;28;20053;-89
2023/10/03 06:48:05;;;;;;;34.83;16.20;;;;;;;;;;5044395;28;20057;-91
2023/10/03 06:50:33;;;;;;;34.20;16.92;;;;;;;;;;5046284;28;20131;-91
2023/10/03 06:53:01;;;;;;;35.22;16.05;;;;;;;;;;5044622;28;20051;-96
2023/10/03 06:55:28;;;;;;;35.90;15.52;;;;;;;;;;5042738;28;20417;-90
2023/10/03 06:57:55;;;;;;;32.60;15.63;;;;;;;;;;5043147;28;20057;-90
2023/10/03 07:00:23;;;;;;;33.83;17.08;;;;;;;;;;5046290;28;20060;-90
2023/10/03 07:02:50;;;;;;;30.67;15.77;;;;;;;;;;5045916;28;20079;-91
2023/10/03 07:05:17;;;;;;;36.42;15.88;;;;;;;;;;5042512;28;20151;-91
2023/10/03 07:07:45;;;;;;;31.95;15.85;;;;;;;;;;5042769;28;20473;-91
2023/10/03 07:10:12;;;;;;;32.15;15.50;;;;;;;;;;5045002;28;20422;-92
2023/10/03 07:12:39;;;;;;;32.80;15.57;;;;;;;;;;5045998;28;20083;-91
2023/10/03 07:15:11;;;;;;;28.90;14.57;;;;;;;;;;5043546;28;20089;-91
2023/10/03 07:17:39;;;;;;;33.22;15.32;;;;;;;;;;5042241;28;20057;-90
2023/10/03 07:20:08;;;;;;;29.17;14.10;;;;;;;;;;5044010;28;20049;-92
2023/10/03 07:22:36;;;;;;;31.88;14.85;;;;;;;;;;5045664;28;20052;-91
2023/10/03 07:25:06;;;;;;;30.10;13.57;;;;;;;;;;5044320;28;20059;-90
2023/10/03 07:27:34;;;;;;;32.47;14.73;;;;;;;;;;5039750;28;20075;-92
2023/10/03 07:30:03;;;;;;;32.83;14.30;;;;;;;;;;5040716;28;20084;-94
2023/10/03 07:32:32;;;;;;;30.75;14.25;;;;;;;;;;5043334;28;20049;-89
2023/10/03 07:35:00;;;;;;;31.67;14.80;;;;;;;;;;5043069;28;20103;-95
2023/10/03 07:37:27;;;;;;;33.08;13.90;;;;;;;;;;5047658;28;20049;-91
2023/10/03 07:39:55;;;;;;;32.65;13.85;;;;;;;;;;5046988;28;20057;-94
2023/10/03 07:42:23;;;;;;;27.90;13.60;;;;;;;;;;5046564;28;20053;-92
2023/10/03 07:44:53;;;;;;;29.13;13.90;;;;;;;;;;5045541;28;20493;-85
2023/10/03 07:47:21;;;;;;;27.38;13.13;;;;;;;;;;5035885;28;20053;-96
2023/10/03 07:49:48;;;;;;;28.88;14.35;;;;;;;;;;5043121;28;20046;-89
2023/10/03 07:52:19;;;;;;;29.92;14.55;;;;;;;;;;5036485;28;20131;-96
2023/10/03 07:54:54;;;;;;;33.97;15.07;;;;;;;;;;5044867;28;20060;-94
2023/10/03 07:57:23;;;;;;;34.88;14.35;;;;;;;;;;5047049;28;20056;-90
2023/10/03 07:59:51;;;;;;;25.25;13.63;;;;;;;;;;5046992;28;20055;-93
2023/10/03 08:02:26;;;;;;;27.75;13.48;;;;;;;;;;5034806;28;20129;-95
2023/10/03 08:05:00;;;;;;;30.05;13.82;;;;;;;;;;5044230;28;20049;-94
2023/10/03 08:07:28;;;;;;;25.33;13.50;;;;;;;;;;5043701;28;20057;-92
2023/10/03 08:09:56;;;;;;;26.20;13.73;;;;;;;;;;5044869;28;20487;-94
2023/10/03 08:12:24;;;;;;;26.15;13.60;;;;;;;;;;5046571;28;20554;-94
2023/10/03 08:14:52;;;;;;;28.55;13.98;;;;;;;;;;5034850;28;20112;-94
2023/10/03 08:17:20;;;;;;;27.20;13.75;;;;;;;;;;5052980;28;20088;-94
2023/10/03 08:19:49;;;;;;;26.98;14.07;;;;;;;;;;5034932;28;20053;-90
2023/10/03 08:22:16;;;;;;;26.85;14.20;;;;;;;;;;5042019;28;20073;-93
2023/10/03 08:24:43;;;;;;;28.75;12.70;;;;;;;;;;5042766;28;20072;-94
2023/10/03 08:27:18;;;;;;;24.42;12.98;;;;;;;;;;5047589;28;20063;-95
2023/10/03 08:29:53;;;;;;;24.02;12.15;;;;;;;;;;5047454;28;20041;-96
2023/10/03 08:32:25;;;;;;;25.45;14.18;;;;;;;;;;5045959;28;20049;-95
2023/10/03 08:34:52;;;;;;;28.17;15.23;;;;;;;;;;5043314;28;20132;-95
2023/10/03 08:37:22;;;;;;;23.77;13.50;;;;;;;;;;5029832;28;20053;-95
2023/10/03 08:39:50;;;;;;;26.60;13.50;;;;;;;;;;5043500;28;20053;-88
2023/10/03 08:42:34;;;;;;;24.88;14.60;;;;;;;;;;5055417;28;20076;-96
2023/10/03 08:45:22;;;;;;;23.77;13.05;;;;;;;;;;5055276;28;20382;-92
2023/10/03 08:47:54;;;;;;;21.58;11.68;;;;;;;;;;5045968;28;20063;-92
2023/10/03 08:50:33;;;;;;;20.67;12.07;;;;;;;;;;5042716;28;20056;-93
2023/10/03 08:53:12;;;;;;;25.02;14.38;;;;;;;;;;5045106;28;20052;-95
2023/10/03 08:55:43;;;;;;;21.95;12.90;;;;;;;;;;5048667;28;20128;-96
2023/10/03 08:58:18;;;;;;;17.95;10.98;;;;;;;;;;5055388;28;20096;-96
2023/10/03 09:00:47;;;;;;;19.27;11.15;;;;;;;;;;5052701;28;20592;-93
2023/10/03 09:03:20;;;;;;;24.40;11.18;;;;;;;;;;5060241;28;20049;-96
2023/10/03 09:05:48;;;;;;;20.98;11.70;;;;;;;;;;5063782;22;20080;-84
2023/10/03 09:08:16;;;;;;;19.98;11.45;;;;;;;;;;5026089;28;20050;-82
2023/10/03 09:10:51;;;;;;;21.42;11.63;;;;;;;;;;5033382;28;20049;-82
2023/10/03 09:13:26;;;;;;;24.23;11.25;;;;;;;;;;5025031;28;20045;-84
2023/10/03 09:16:02;;;;;;;21.02;12.32;;;;;;;;;;5030336;28;20042;-84
2023/10/03 09:18:43;;;;;;;23.20;11.75;;;;;;;;;;5037542;28;20045;-83
2023/10/03 09:21:15;;;;;;;28.92;10.80;;;;;;;;;;5038053;28;20084;-83
2023/10/03 09:23:59;;;;;;;21.00;10.98;;;;;;;;;;5038385;28;20049;-86
2023/10/03 09:26:27;;;;;;;21.40;10.68;;;;;;;;;;5031363;28;20100;-84
2023/10/03 09:28:54;;;;;;;20.58;10.63;;;;;;;;;;5038795;28;20077;-87
2023/10/03 09:31:22;;;;;;;20.02;10.65;;;;;;;;;;5036754;28;20049;-85
2023/10/03 09:33:50;;;;;;;17.15;9.73;;;;;;;;;;5036276;28;20141;-85
2023/10/03 09:36:20;;;;;;;29.60;11.45;;;;;;;;;;5036965;28;20045;-86
2023/10/03 09:38:59;;;;;;;16.90;9.95;;;;;;;;;;5038459;28;20068;-83
2023/10/03 09:41:27;;;;;;;19.63;10.23;;;;;;;;;;5039358;28;20056;-85
2023/10/03 09:43:54;;;;;;;27.15;10.38;;;;;;;;;;5039074;28;20068;-85
2023/10/03 09:46:41;;;;;;;20.33;10.63;;;;;;;;;;5038416;28;20411;-88
2023/10/03 09:49:08;;;;;;;24.42;8.90;;;;;;;;;;5039362;28;20141;-87
2023/10/03 09:51:46;;;;;;;20.02;9.70;;;;;;;;;;5031805;28;20054;-88
2023/10/03 09:54:24;;;;;;;17.02;9.82;;;;;;;;;;5035722;28;20060;-84
2023/10/03 09:56:55;;;;;;;16.55;9.25;;;;;;;;;;5037556;28;20073;-85
2023/10/03 09:59:24;;;;;;;22.73;10.27;;;;;;;;;;5044929;28;20068;-84
2023/10/03 10:01:55;;;;;;;19.80;10.48;;;;;;;;;;5037761;28;20495;-84
2023/10/03 10:04:26;;;;;;;18.50;9.93;;;;;;;;;;5022774;28;20660;-85
2023/10/03 10:07:16;;;;;;;20.70;9.95;;;;;;;;;;5020715;28;20058;-86
2023/10/03 10:09:52;;;;;;;17.60;9.90;;;;;;;;;;5021835;28;20045;-84
2023/10/03 10:12:21;;;;;;;15.35;9.25;;;;;;;;;;5038313;28;20410;-86
2023/10/03 10:15:01;;;;;;;18.13;9.90;;;;;;;;;;5034202;28;20060;-86
2023/10/03 10:17:44;;;;;;;20.38;9.43;;;;;;;;;;5039573;28;20049;-85
2023/10/03 10:20:27;;;;;;;18.42;9.35;;;;;;;;;;5031596;28;20058;-84
2023/10/03 10:22:58;;;;;;;20.38;8.73;;;;;;;;;;5038042;28;20050;-83
2023/10/03 10:25:30;;;;;;;16.63;9.15;;;;;;;;;;5033967;28;20054;-86
2023/10/03 10:28:08;;;;;;;16.70;9.85;;;;;;;;;;5036657;28;20046;-86
2023/10/03 10:30:35;;;;;;;17.85;8.88;;;;;;;;;;5039156;28;20049;-86
2023/10/03 10:33:18;;;;;;;17.85;9.15;;;;;;;;;;5040084;28;20049;-86
2023/10/03 10:35:54;;;;;;;17.00;9.00;;;;;;;;;;5023980;28;20078;-85
2023/10/03 10:38:42;;;;;;;21.75;10.35;;;;;;;;;;5033757;28;20276;-85
2023/10/03 10:41:22;;;;;;;14.27;8.32;;;;;;;;;;5036767;28;20061;-85
2023/10/03 10:44:08;;;;;;;21.95;9.00;;;;;;;;;;5019311;28;20054;-85
2023/10/03 10:46:43;;;;;;;17.98;9.82;;;;;;;;;;5033872;28;20068;-86
2023/10/03 10:49:30;;;;;;;19.80;9.80;;;;;;;;;;5039245;28;20049;-85
2023/10/03 10:51:59;;;;;;;22.45;9.43;;;;;;;;;;5032708;28;20060;-83
2023/10/03 10:54:31;;;;;;;18.23;9.30;;;;;;;;;;5041617;28;20102;-87
2023/10/03 10:57:03;;;;;;;19.73;9.00;;;;;;;;;;5031607;28;20060;-86
2023/10/03 10:59:43;;;;;;;17.63;9.52;;;;;;;;;;5040217;28;20566;-86
2023/10/03 11:02:17;;;;;;;14.55;8.80;;;;;;;;;;5039648;28;20129;-87
2023/10/03 11:04:52;;;;;;;16.77;9.63;;;;;;;;;;5040413;28;20046;-86
2023/10/03 11:07:23;;;;;;;15.23;8.90;;;;;;;;;;5041226;28;20511;-88
2023/10/03 11:09:52;;;;;;;17.10;8.50;;;;;;;;;;5039554;28;20080;-88
2023/10/03 11:12:31;;;;;;;17.33;9.10;;;;;;;;;;5039695;28;20076;-87
2023/10/03 11:14:58;;;;;;;14.95;8.77;;;;;;;;;;5039366;28;20053;-87
2023/10/03 11:17:28;;;;;;;18.75;9.10;;;;;;;;;;5040331;28;20049;-87
2023/10/03 11:19:56;;;;;;;14.15;8.93;;;;;;;;;;5040636;28;20558;-87
2023/10/03 11:22:24;;;;;;;15.20;8.98;;;;;;;;;;5040420;28;20042;-87
2023/10/03 11:24:51;;;;;;;14.77;8.82;;;;;;;;;;5036453;28;20128;-87
2023/10/03 11:27:23;;;;;;;16.20;8.93;;;;;;;;;;5043030;28;20099;-87
2023/10/03 11:29:53;;;;;;;13.95;8.30;;;;;;;;;;5048403;28;20580;-86
2023/10/03 11:32:24;;;;;;;15.88;8.27;;;;;;;;;;5050077;28;20567;-83
2023/10/03 11:34:55;;;;;;;12.77;8.38;;;;;;;;;;5057350;28;20132;-83
2023/10/03 11:37:44;;;;;;;14.88;7.93;;;;;;;;;;5021558;28;20056;-85
2023/10/03 11:40:16;;;;;;;13.02;8.13;;;;;;;;;;5036857;28;20517;-84
2023/10/03 11:42:48;;;;;;;15.70;7.40;;;;;;;;;;5035054;28;20513;-86
2023/10/03 11:45:18;;;;;;;13.30;8.35;;;;;;;;;;5033815;28;20548;-87
2023/10/03 11:48:01;;;;;;;10.18;7.20;;;;;;;;;;5026949;28;20050;-84
2023/10/03 11:50:31;;;;;;;12.23;7.30;;;;;;;;;;5022791;28;20058;-87
2023/10/03 11:53:01;;;;;;;14.20;7.47;;;;;;;;;;5013882;28;20054;-87
2023/10/03 11:55:32;;;;;;;18.55;7.15;;;;;;;;;;5026160;28;20057;-87
2023/10/03 11:58:01;;;;;;;24.48;7.30;;;;;;;;;;5025428;28;20077;-85
2023/10/03 12:00:29;;;;;;;14.25;6.55;;;;;;;;;;5034457;28;20449;-86
2023/10/03 12:02:57;;;;;;;12.23;5.85;;;;;;;;;;5017381;28;20132;-87
2023/10/03 12:05:26;;;;;;;13.68;5.78;;;;;;;;;;5025738;28;20410;-87
2023/10/03 12:07:56;;;;;;;17.75;6.18;;;;;;;;;;5033771;28;20095;-87
2023/10/03 12:10:34;;;;;;;13.95;6.40;;;;;;;;;;5031028;28;20042;-87
2023/10/03 12:13:02;;;;;;;13.13;5.88;;;;;;;;;;5021627;28;20123;-87
2023/10/03 12:15:31;;;;;;;10.48;5.80;;;;;;;;;;5027280;28;20053;-86
2023/10/03 12:17:59;;;;;;;8.27;5.35;;;;;;;;;;5033386;28;20049;-86
2023/10/03 12:20:27;;;;;;;14.82;5.60;;;;;;;;;;5033253;28;20053;-88
2023/10/03 12:22:56;;;;;;;8.10;4.90;;;;;;;;;;5033405;28;20050;-88
2023/10/03 12:25:26;;;;;;;7.95;4.57;;;;;;;;;;5032981;28;20057;-87
2023/10/03 12:27:54;;;;;;;10.65;4.90;;;;;;;;;;5034323;28;20072;-86
2023/10/03 12:30:22;;;;;;;11.00;4.60;;;;;;;;;;5033421;28;20483;-88
2023/10/03 12:32:59;;;;;;;12.93;4.78;;;;;;;;;;5033929;28;20149;-88
2023/10/03 12:35:53;;;;;;;9.25;4.57;;;;;;;;;;5019453;28;20128;-87
2023/10/03 12:38:21;;;;;;;8.52;4.32;;;;;;;;;;5034418;28;20144;-86
2023/10/03 12:41:05;;;;;;;7.72;4.50;;;;;;;;;;5035181;28;20081;-88
2023/10/03 12:43:37;;;;;;;6.40;4.35;;;;;;;;;;5036281;28;20045;-86
2023/10/03 12:46:27;;;;;;;9.07;4.65;;;;;;;;;;5027173;28;20052;-86
2023/10/03 12:48:57;;;;;;;10.13;4.75;;;;;;;;;;5035102;28;20053;-84
2023/10/03 12:51:35;;;;;;;7.18;4.70;;;;;;;;;;5025968;28;20499;-85
2023/10/03 12:54:13;;;;;;;7.20;4.28;;;;;;;;;;5035565;28;20046;-87
2023/10/03 12:56:48;;;;;;;6.93;4.25;;;;;;;;;;5035590;28;20050;-87
2023/10/03 12:59:33;;;;;;;11.82;4.63;;;;;;;;;;5035426;28;20041;-86
2023/10/03 13:02:01;;;;;;;8.25;4.07;;;;;;;;;;5034060;28;20136;-88
2023/10/03 13:04:35;;;;;;;8.68;4.05;;;;;;;;;;5026554;28;20586;-84
2023/10/03 13:07:03;;;;;;;7.78;4.55;;;;;;;;;;5017891;28;20670;-87
2023/10/03 13:09:30;;;;;;;6.88;4.30;;;;;;;;;;5028677;28;20053;-88
2023/10/03 13:11:58;;;;;;;11.75;4.32;;;;;;;;;;5034382;28;20045;-86
2023/10/03 13:14:25;;;;;;;4.72;3.90;;;;;;;;;;5035119;28;20053;-87
2023/10/03 13:16:58;;;;;;;9.65;4.38;;;;;;;;;;5035139;28;20163;-86
2023/10/03 13:19:27;;;;;;;7.25;4.10;;;;;;;;;;5033455;28;20041;-88
2023/10/03 13:22:02;;;;;;;10.52;4.35;;;;;;;;;;5032246;28;20049;-86
2023/10/03 13:24:30;;;;;;;8.27;4.38;;;;;;;;;;5033374;28;20061;-86
2023/10/03 13:26:57;;;;;;;9.90;4.53;;;;;;;;;;5032840;28;20045;-89
2023/10/03 13:29:29;;;;;;;9.25;4.15;;;;;;;;;;5023584;28;20052;-89
2023/10/03 13:32:03;;;;;;;6.97;4.45;;;;;;;;;;5031760;28;20053;-87
2023/10/03 13:34:30;;;;;;;9.48;4.68;;;;;;;;;;5033336;28;20057;-88
2023/10/03 13:36:59;;;;;;;8.45;4.30;;;;;;;;;;5031782;28;20054;-88
2023/10/03 13:39:29;;;;;;;11.90;4.38;;;;;;;;;;5032817;28;20049;-88
2023/10/03 13:41:57;;;;;;;6.55;4.15;;;;;;;;;;5033591;28;20494;-86
2023/10/03 13:44:25;;;;;;;8.70;4.03;;;;;;;;;;5033196;28;20077;-87
2023/10/03 13:46:52;;;;;;;9.23;4.35;;;;;;;;;;5033554;28;20045;-87
2023/10/03 13:49:24;;;;;;;13.13;4.65;;;;;;;;;;5033538;28;20049;-87
2023/10/03 13:51:52;;;;;;;7.45;4.00;;;;;;;;;;5031728;28;20049;-89
2023/10/03 13:54:21;;;;;;;5.60;4.20;;;;;;;;;;5024584;28;20085;-88
2023/10/03 13:56:50;;;;;;;9.13;4.38;;;;;;;;;;5033327;28;20056;-89
2023/10/03 13:59:18;;;;;;;14.48;4.15;;;;;;;;;;5015618;28;20517;-90
2023/10/03 14:01:45;;;;;;;6.70;3.80;;;;;;;;;;5033056;28;20088;-87
2023/10/03 14:04:17;;;;;;;10.57;3.60;;;;;;;;;;5034649;28;20065;-90
2023/10/03 14:07:13;;;;;;;9.75;3.65;;;;;;;;;;4994469;28;20064;-88
2023/10/03 14:09:43;;;;;;;5.93;3.72;;;;;;;;;;5036965;28;20056;-87
2023/10/03 14:12:19;;;;;;;6.43;3.72;;;;;;;;;;5035369;28;20063;-88
2023/10/03 14:17:29;;;;;;;9.60;4.35;;;;;;;;;;5000762;28;20053;-83
2023/10/03 14:19:56;;;;;;;6.82;4.13;;;;;;;;;;5000262;28;20069;-82
2023/10/03 14:22:24;;;;;;;6.05;3.95;;;;;;;;;;4995093;28;20047;-83
2023/10/03 14:24:51;;;;;;;7.13;4.05;;;;;;;;;;4995973;28;20497;-82
2023/10/03 14:27:18;;;;;;;10.00;4.30;;;;;;;;;;4999465;28;20046;-82
2023/10/03 14:29:46;;;;;;;7.65;3.80;;;;;;;;;;4998421;28;20050;-82
2023/10/03 14:32:19;;;;;;;8.52;4.40;;;;;;;;;;5000877;28;20054;-83
2023/10/03 14:34:48;;;;;;;7.60;3.70;;;;;;;;;;4999573;28;20109;-82
2023/10/03 14:37:15;;;;;;;4.50;3.33;;;;;;;;;;4997986;28;20057;-81
2023/10/03 14:39:42;;;;;;;9.75;3.47;;;;;;;;;;4997489;28;20050;-82
2023/10/03 14:42:11;;;;;;;9.70;3.97;;;;;;;;;;4996865;28;20046;-81
2023/10/03 14:44:40;;;;;;;4.63;3.55;;;;;;;;;;4999535;28;20433;-83
2023/10/03 14:47:07;;;;;;;5.70;3.70;;;;;;;;;;4998964;28;20061;-83
2023/10/03 14:49:34;;;;;;;10.13;3.58;;;;;;;;;;4998309;28;20129;-82